sensor_id;sensor_type;location;lat;lon;timestamp;temperature;humidity
50548;DHT22;38013;48.810;8.818;2022-09-17T00:01:00;12.10;71.00
50548;DHT22;38013;48.810;8.818;2022-09-17T00:03:27;12.00;71.10
50548;DHT22;38013;48.810;8.818;2022-09-17T00:08:31;12.00;71.50
50548;DHT22;38013;48.810;8.818;2022-09-17T00:10:57;12.00;71.30
50548;DHT22;38013;48.810;8.818;2022-09-17T00:13:23;12.00;71.40
50548;DHT22;38013;48.810;8.818;2022-09-17T00:15:49;12.10;71.50
50548;DHT22;38013;48.810;8.818;2022-09-17T00:18:16;12.10;71.40
50548;DHT22;38013;48.810;8.818;2022-09-17T00:20:44;12.10;71.50
50548;DHT22;38013;48.810;8.818;2022-09-17T00:23:12;12.10;71.60
50548;DHT22;38013;48.810;8.818;2022-09-17T00:25:43;12.20;71.60
50548;DHT22;38013;48.810;8.818;2022-09-17T00:28:11;12.20;71.60
50548;DHT22;38013;48.810;8.818;2022-09-17T00:30:42;12.20;71.50
50548;DHT22;38013;48.810;8.818;2022-09-17T00:33:14;12.30;71.50
50548;DHT22;38013;48.810;8.818;2022-09-17T00:35:41;12.30;71.40
50548;DHT22;38013;48.810;8.818;2022-09-17T00:38:07;12.20;71.30
50548;DHT22;38013;48.810;8.818;2022-09-17T00:40:33;12.30;71.40
50548;DHT22;38013;48.810;8.818;2022-09-17T00:42:59;12.30;71.50
50548;DHT22;38013;48.810;8.818;2022-09-17T00:45:27;12.30;71.50
50548;DHT22;38013;48.810;8.818;2022-09-17T00:48:01;12.30;71.60
50548;DHT22;38013;48.810;8.818;2022-09-17T00:50:37;12.30;71.90
50548;DHT22;38013;48.810;8.818;2022-09-17T00:53:11;12.30;71.80
50548;DHT22;38013;48.810;8.818;2022-09-17T00:55:45;12.30;71.70
50548;DHT22;38013;48.810;8.818;2022-09-17T00:58:15;12.30;71.60
50548;DHT22;38013;48.810;8.818;2022-09-17T01:00:43;12.30;71.80
50548;DHT22;38013;48.810;8.818;2022-09-17T01:03:11;12.30;72.10
50548;DHT22;38013;48.810;8.818;2022-09-17T01:05:50;12.30;71.30
50548;DHT22;38013;48.810;8.818;2022-09-17T01:08:40;12.30;71.70
50548;DHT22;38013;48.810;8.818;2022-09-17T01:29:58;12.20;71.60
50548;DHT22;38013;48.810;8.818;2022-09-17T01:32:57;12.20;71.60
50548;DHT22;38013;48.810;8.818;2022-09-17T01:39:11;12.10;71.70
50548;DHT22;38013;48.810;8.818;2022-09-17T01:41:51;12.10;71.60
50548;DHT22;38013;48.810;8.818;2022-09-17T01:44:42;12.10;71.60
50548;DHT22;38013;48.810;8.818;2022-09-17T01:47:21;12.10;71.90
50548;DHT22;38013;48.810;8.818;2022-09-17T01:49:54;12.10;71.60
50548;DHT22;38013;48.810;8.818;2022-09-17T01:52:25;12.10;71.60
50548;DHT22;38013;48.810;8.818;2022-09-17T01:54:57;12.00;71.60
50548;DHT22;38013;48.810;8.818;2022-09-17T01:57:44;12.00;71.80
50548;DHT22;38013;48.810;8.818;2022-09-17T02:00:14;12.00;71.90
50548;DHT22;38013;48.810;8.818;2022-09-17T02:02:54;12.00;71.70
50548;DHT22;38013;48.810;8.818;2022-09-17T02:05:44;12.00;72.20
50548;DHT22;38013;48.810;8.818;2022-09-17T02:08:20;11.90;72.50
50548;DHT22;38013;48.810;8.818;2022-09-17T02:10:52;12.00;72.10
50548;DHT22;38013;48.810;8.818;2022-09-17T02:13:28;11.90;71.90
50548;DHT22;38013;48.810;8.818;2022-09-17T02:16:04;12.00;72.00
50548;DHT22;38013;48.810;8.818;2022-09-17T02:21:45;11.90;72.10
50548;DHT22;38013;48.810;8.818;2022-09-17T02:24:24;11.90;72.50
50548;DHT22;38013;48.810;8.818;2022-09-17T02:27:19;11.90;72.00
50548;DHT22;38013;48.810;8.818;2022-09-17T02:29:46;11.80;72.50
50548;DHT22;38013;48.810;8.818;2022-09-17T02:32:12;11.90;72.00
50548;DHT22;38013;48.810;8.818;2022-09-17T02:34:38;11.90;72.00
50548;DHT22;38013;48.810;8.818;2022-09-17T02:37:05;11.80;72.00
50548;DHT22;38013;48.810;8.818;2022-09-17T02:39:32;11.80;72.10
50548;DHT22;38013;48.810;8.818;2022-09-17T02:42:27;11.80;72.10
50548;DHT22;38013;48.810;8.818;2022-09-17T02:45:27;11.70;72.30
50548;DHT22;38013;48.810;8.818;2022-09-17T02:48:18;11.70;72.20
50548;DHT22;38013;48.810;8.818;2022-09-17T03:02:25;11.60;71.80
50548;DHT22;38013;48.810;8.818;2022-09-17T03:04:55;11.60;72.10
50548;DHT22;38013;48.810;8.818;2022-09-17T03:07:22;11.50;71.70
50548;DHT22;38013;48.810;8.818;2022-09-17T03:09:48;11.50;72.40
50548;DHT22;38013;48.810;8.818;2022-09-17T03:12:14;11.50;71.90
50548;DHT22;38013;48.810;8.818;2022-09-17T03:14:40;11.40;71.90
50548;DHT22;38013;48.810;8.818;2022-09-17T03:17:06;11.40;72.10
50548;DHT22;38013;48.810;8.818;2022-09-17T03:19:32;11.40;72.10
50548;DHT22;38013;48.810;8.818;2022-09-17T03:21:57;11.40;72.20
50548;DHT22;38013;48.810;8.818;2022-09-17T03:24:23;11.40;72.20
50548;DHT22;38013;48.810;8.818;2022-09-17T03:26:49;11.30;72.20
50548;DHT22;38013;48.810;8.818;2022-09-17T03:29:15;11.40;72.30
50548;DHT22;38013;48.810;8.818;2022-09-17T03:31:41;11.30;72.30
50548;DHT22;38013;48.810;8.818;2022-09-17T03:34:07;11.30;72.30
50548;DHT22;38013;48.810;8.818;2022-09-17T03:36:33;11.30;72.30
50548;DHT22;38013;48.810;8.818;2022-09-17T03:38:59;11.30;72.40
50548;DHT22;38013;48.810;8.818;2022-09-17T03:41:26;11.30;72.40
50548;DHT22;38013;48.810;8.818;2022-09-17T03:43:52;11.30;72.40
50548;DHT22;38013;48.810;8.818;2022-09-17T03:46:18;11.30;72.40
50548;DHT22;38013;48.810;8.818;2022-09-17T03:48:44;11.20;72.30
50548;DHT22;38013;48.810;8.818;2022-09-17T03:51:10;11.30;72.50
50548;DHT22;38013;48.810;8.818;2022-09-17T03:53:36;11.20;72.30
50548;DHT22;38013;48.810;8.818;2022-09-17T03:56:03;11.20;72.20
50548;DHT22;38013;48.810;8.818;2022-09-17T03:58:31;11.20;73.00
50548;DHT22;38013;48.810;8.818;2022-09-17T04:00:57;11.20;72.30
50548;DHT22;38013;48.810;8.818;2022-09-17T04:03:24;11.20;72.30
50548;DHT22;38013;48.810;8.818;2022-09-17T04:05:51;11.20;72.40
50548;DHT22;38013;48.810;8.818;2022-09-17T04:08:17;11.20;72.30
50548;DHT22;38013;48.810;8.818;2022-09-17T04:10:43;11.10;72.30
50548;DHT22;38013;48.810;8.818;2022-09-17T04:13:12;11.10;72.30
50548;DHT22;38013;48.810;8.818;2022-09-17T04:15:38;11.10;72.30
50548;DHT22;38013;48.810;8.818;2022-09-17T04:18:04;11.10;72.30
50548;DHT22;38013;48.810;8.818;2022-09-17T04:20:30;11.10;72.50
50548;DHT22;38013;48.810;8.818;2022-09-17T04:22:56;11.00;72.50
50548;DHT22;38013;48.810;8.818;2022-09-17T04:25:22;11.00;72.60
50548;DHT22;38013;48.810;8.818;2022-09-17T04:27:47;11.00;72.70
50548;DHT22;38013;48.810;8.818;2022-09-17T04:30:14;11.00;72.80
50548;DHT22;38013;48.810;8.818;2022-09-17T04:32:40;11.00;72.90
50548;DHT22;38013;48.810;8.818;2022-09-17T04:35:07;11.00;73.00
50548;DHT22;38013;48.810;8.818;2022-09-17T04:37:33;11.00;73.00
50548;DHT22;38013;48.810;8.818;2022-09-17T04:39:59;11.00;73.00
50548;DHT22;38013;48.810;8.818;2022-09-17T04:42:25;11.00;73.00
50548;DHT22;38013;48.810;8.818;2022-09-17T04:44:51;11.00;73.00
50548;DHT22;38013;48.810;8.818;2022-09-17T04:47:17;11.00;73.00
50548;DHT22;38013;48.810;8.818;2022-09-17T04:49:42;11.00;73.10
50548;DHT22;38013;48.810;8.818;2022-09-17T04:52:08;11.00;73.10
50548;DHT22;38013;48.810;8.818;2022-09-17T04:54:34;11.00;73.20
50548;DHT22;38013;48.810;8.818;2022-09-17T04:57:00;11.00;73.10
50548;DHT22;38013;48.810;8.818;2022-09-17T04:59:26;11.00;73.20
50548;DHT22;38013;48.810;8.818;2022-09-17T05:01:52;11.00;73.20
50548;DHT22;38013;48.810;8.818;2022-09-17T05:04:17;11.00;73.20
50548;DHT22;38013;48.810;8.818;2022-09-17T05:06:43;11.00;73.30
50548;DHT22;38013;48.810;8.818;2022-09-17T05:09:09;11.00;73.40
50548;DHT22;38013;48.810;8.818;2022-09-17T05:11:35;11.00;73.40
50548;DHT22;38013;48.810;8.818;2022-09-17T05:14:00;11.00;73.50
50548;DHT22;38013;48.810;8.818;2022-09-17T05:16:26;11.00;73.60
50548;DHT22;38013;48.810;8.818;2022-09-17T05:18:52;11.00;73.60
50548;DHT22;38013;48.810;8.818;2022-09-17T05:21:18;11.00;73.70
50548;DHT22;38013;48.810;8.818;2022-09-17T05:23:45;11.00;73.80
50548;DHT22;38013;48.810;8.818;2022-09-17T05:26:12;11.00;73.80
50548;DHT22;38013;48.810;8.818;2022-09-17T05:28:38;11.00;73.70
50548;DHT22;38013;48.810;8.818;2022-09-17T05:31:04;11.10;73.80
50548;DHT22;38013;48.810;8.818;2022-09-17T05:33:30;11.10;73.70
50548;DHT22;38013;48.810;8.818;2022-09-17T05:35:56;11.10;73.80
50548;DHT22;38013;48.810;8.818;2022-09-17T05:38:22;11.10;73.80
50548;DHT22;38013;48.810;8.818;2022-09-17T05:40:48;11.20;73.70
50548;DHT22;38013;48.810;8.818;2022-09-17T05:43:13;11.20;73.60
50548;DHT22;38013;48.810;8.818;2022-09-17T05:45:39;11.20;73.60
50548;DHT22;38013;48.810;8.818;2022-09-17T05:48:13;11.20;73.70
50548;DHT22;38013;48.810;8.818;2022-09-17T05:50:39;11.30;73.90
50548;DHT22;38013;48.810;8.818;2022-09-17T05:53:09;11.30;73.70
50548;DHT22;38013;48.810;8.818;2022-09-17T05:55:36;11.30;73.70
50548;DHT22;38013;48.810;8.818;2022-09-17T05:58:13;11.30;73.70
50548;DHT22;38013;48.810;8.818;2022-09-17T06:00:41;11.30;73.70
50548;DHT22;38013;48.810;8.818;2022-09-17T06:03:11;11.30;73.50
50548;DHT22;38013;48.810;8.818;2022-09-17T06:05:37;11.40;73.50
50548;DHT22;38013;48.810;8.818;2022-09-17T06:08:03;11.30;73.20
50548;DHT22;38013;48.810;8.818;2022-09-17T06:10:30;11.40;73.30
50548;DHT22;38013;48.810;8.818;2022-09-17T06:12:56;11.40;73.20
50548;DHT22;38013;48.810;8.818;2022-09-17T06:15:23;11.40;73.20
50548;DHT22;38013;48.810;8.818;2022-09-17T06:17:50;11.40;73.30
50548;DHT22;38013;48.810;8.818;2022-09-17T06:20:16;11.40;73.20
50548;DHT22;38013;48.810;8.818;2022-09-17T06:22:42;11.40;73.00
50548;DHT22;38013;48.810;8.818;2022-09-17T06:25:08;11.40;73.00
50548;DHT22;38013;48.810;8.818;2022-09-17T06:27:34;11.40;72.90
50548;DHT22;38013;48.810;8.818;2022-09-17T06:30:01;11.40;73.00
50548;DHT22;38013;48.810;8.818;2022-09-17T06:32:27;11.40;73.10
50548;DHT22;38013;48.810;8.818;2022-09-17T06:34:54;11.40;73.10
50548;DHT22;38013;48.810;8.818;2022-09-17T06:37:30;11.50;73.10
50548;DHT22;38013;48.810;8.818;2022-09-17T06:39:56;11.50;73.20
50548;DHT22;38013;48.810;8.818;2022-09-17T06:42:26;11.50;72.90
50548;DHT22;38013;48.810;8.818;2022-09-17T06:44:55;11.50;73.10
50548;DHT22;38013;48.810;8.818;2022-09-17T06:47:23;11.50;73.20
50548;DHT22;38013;48.810;8.818;2022-09-17T06:49:49;11.50;73.30
50548;DHT22;38013;48.810;8.818;2022-09-17T06:52:16;11.40;73.20
50548;DHT22;38013;48.810;8.818;2022-09-17T06:54:42;11.40;73.20
50548;DHT22;38013;48.810;8.818;2022-09-17T06:57:07;11.40;73.20
50548;DHT22;38013;48.810;8.818;2022-09-17T06:59:33;11.40;73.40
50548;DHT22;38013;48.810;8.818;2022-09-17T07:01:59;11.40;73.60
50548;DHT22;38013;48.810;8.818;2022-09-17T07:04:25;11.40;73.70
50548;DHT22;38013;48.810;8.818;2022-09-17T07:06:50;11.30;73.70
50548;DHT22;38013;48.810;8.818;2022-09-17T07:09:16;11.30;73.90
50548;DHT22;38013;48.810;8.818;2022-09-17T07:11:43;11.30;74.00
50548;DHT22;38013;48.810;8.818;2022-09-17T07:14:09;11.30;74.30
50548;DHT22;38013;48.810;8.818;2022-09-17T07:16:35;11.30;74.40
50548;DHT22;38013;48.810;8.818;2022-09-17T07:19:02;11.30;74.50
50548;DHT22;38013;48.810;8.818;2022-09-17T07:21:28;11.30;74.60
50548;DHT22;38013;48.810;8.818;2022-09-17T07:23:54;11.30;74.70
50548;DHT22;38013;48.810;8.818;2022-09-17T07:26:20;11.30;74.80
50548;DHT22;38013;48.810;8.818;2022-09-17T07:28:45;11.30;74.80
50548;DHT22;38013;48.810;8.818;2022-09-17T07:31:12;11.30;74.70
50548;DHT22;38013;48.810;8.818;2022-09-17T07:33:39;11.30;74.80
50548;DHT22;38013;48.810;8.818;2022-09-17T07:36:07;11.30;75.00
50548;DHT22;38013;48.810;8.818;2022-09-17T07:38:35;11.30;75.20
50548;DHT22;38013;48.810;8.818;2022-09-17T07:41:06;11.30;75.20
50548;DHT22;38013;48.810;8.818;2022-09-17T07:43:37;11.30;75.70
50548;DHT22;38013;48.810;8.818;2022-09-17T07:46:04;11.30;75.70
50548;DHT22;38013;48.810;8.818;2022-09-17T07:48:31;11.40;75.90
50548;DHT22;38013;48.810;8.818;2022-09-17T07:50:57;11.40;75.90
50548;DHT22;38013;48.810;8.818;2022-09-17T07:53:23;11.40;75.70
50548;DHT22;38013;48.810;8.818;2022-09-17T07:55:52;11.50;75.70
50548;DHT22;38013;48.810;8.818;2022-09-17T07:58:21;11.50;75.70
50548;DHT22;38013;48.810;8.818;2022-09-17T08:00:47;11.60;75.60
50548;DHT22;38013;48.810;8.818;2022-09-17T08:03:13;11.60;75.50
50548;DHT22;38013;48.810;8.818;2022-09-17T08:05:39;11.60;75.50
50548;DHT22;38013;48.810;8.818;2022-09-17T08:08:05;11.70;75.70
50548;DHT22;38013;48.810;8.818;2022-09-17T08:10:31;11.70;75.70
50548;DHT22;38013;48.810;8.818;2022-09-17T08:12:58;11.70;75.90
50548;DHT22;38013;48.810;8.818;2022-09-17T08:15:24;11.80;75.90
50548;DHT22;38013;48.810;8.818;2022-09-17T08:17:51;11.80;75.60
50548;DHT22;38013;48.810;8.818;2022-09-17T08:20:17;11.90;75.30
50548;DHT22;38013;48.810;8.818;2022-09-17T08:22:44;11.90;74.80
50548;DHT22;38013;48.810;8.818;2022-09-17T08:25:10;11.90;74.70
50548;DHT22;38013;48.810;8.818;2022-09-17T08:27:36;12.00;74.90
50548;DHT22;38013;48.810;8.818;2022-09-17T08:30:06;12.00;75.60
50548;DHT22;38013;48.810;8.818;2022-09-17T08:32:33;12.10;75.40
50548;DHT22;38013;48.810;8.818;2022-09-17T08:34:59;12.10;76.00
50548;DHT22;38013;48.810;8.818;2022-09-17T08:37:26;12.20;75.20
50548;DHT22;38013;48.810;8.818;2022-09-17T08:39:54;12.20;74.80
50548;DHT22;38013;48.810;8.818;2022-09-17T08:42:45;12.30;74.70
50548;DHT22;38013;48.810;8.818;2022-09-17T08:45:16;12.30;73.60
50548;DHT22;38013;48.810;8.818;2022-09-17T08:47:45;12.40;73.50
50548;DHT22;38013;48.810;8.818;2022-09-17T08:50:18;12.40;73.50
50548;DHT22;38013;48.810;8.818;2022-09-17T08:55:41;12.40;73.20
50548;DHT22;38013;48.810;8.818;2022-09-17T09:01:57;12.50;73.40
50548;DHT22;38013;48.810;8.818;2022-09-17T09:04:48;12.50;72.80
50548;DHT22;38013;48.810;8.818;2022-09-17T09:07:46;12.60;72.20
50548;DHT22;38013;48.810;8.818;2022-09-17T09:10:35;12.60;72.40
50548;DHT22;38013;48.810;8.818;2022-09-17T09:13:10;12.60;72.70
50548;DHT22;38013;48.810;8.818;2022-09-17T09:15:57;12.60;72.90
50548;DHT22;38013;48.810;8.818;2022-09-17T09:18:28;12.60;72.80
50548;DHT22;38013;48.810;8.818;2022-09-17T09:21:25;12.70;72.90
50548;DHT22;38013;48.810;8.818;2022-09-17T09:23:55;12.80;72.50
50548;DHT22;38013;48.810;8.818;2022-09-17T09:26:43;12.80;72.50
50548;DHT22;38013;48.810;8.818;2022-09-17T09:29:39;12.80;72.00
50548;DHT22;38013;48.810;8.818;2022-09-17T09:38:03;12.90;71.70
50548;DHT22;38013;48.810;8.818;2022-09-17T09:40:42;13.00;71.70
50548;DHT22;38013;48.810;8.818;2022-09-17T09:43:16;13.00;71.40
50548;DHT22;38013;48.810;8.818;2022-09-17T09:45:58;13.10;71.40
50548;DHT22;38013;48.810;8.818;2022-09-17T09:48:37;13.10;71.70
50548;DHT22;38013;48.810;8.818;2022-09-17T09:51:33;13.10;71.20
50548;DHT22;38013;48.810;8.818;2022-09-17T09:57:03;13.30;70.60
50548;DHT22;38013;48.810;8.818;2022-09-17T09:59:34;13.40;71.00
50548;DHT22;38013;48.810;8.818;2022-09-17T10:02:03;13.40;71.30
50548;DHT22;38013;48.810;8.818;2022-09-17T10:04:29;13.50;70.40
50548;DHT22;38013;48.810;8.818;2022-09-17T10:07:08;13.60;70.60
50548;DHT22;38013;48.810;8.818;2022-09-17T10:09:36;13.60;69.70
50548;DHT22;38013;48.810;8.818;2022-09-17T10:14:33;13.80;69.00
50548;DHT22;38013;48.810;8.818;2022-09-17T10:17:21;13.80;68.40
50548;DHT22;38013;48.810;8.818;2022-09-17T10:22:37;13.90;67.70
50548;DHT22;38013;48.810;8.818;2022-09-17T10:25:11;14.00;69.40
50548;DHT22;38013;48.810;8.818;2022-09-17T10:27:46;14.10;69.20
50548;DHT22;38013;48.810;8.818;2022-09-17T10:30:17;14.20;68.50
50548;DHT22;38013;48.810;8.818;2022-09-17T10:32:44;14.30;67.50
50548;DHT22;38013;48.810;8.818;2022-09-17T10:36:04;14.40;67.70
50548;DHT22;38013;48.810;8.818;2022-09-17T10:38:37;14.50;65.20
50548;DHT22;38013;48.810;8.818;2022-09-17T10:41:24;14.60;66.40
50548;DHT22;38013;48.810;8.818;2022-09-17T10:43:50;14.60;65.40
50548;DHT22;38013;48.810;8.818;2022-09-17T10:46:24;14.70;66.00
50548;DHT22;38013;48.810;8.818;2022-09-17T10:51:51;14.80;64.70
50548;DHT22;38013;48.810;8.818;2022-09-17T11:00:14;15.10;65.40
50548;DHT22;38013;48.810;8.818;2022-09-17T11:03:04;15.20;63.40
50548;DHT22;38013;48.810;8.818;2022-09-17T11:21:28;15.60;62.80
50548;DHT22;38013;48.810;8.818;2022-09-17T11:26:49;15.90;62.70
50548;DHT22;38013;48.810;8.818;2022-09-17T11:29:49;16.00;63.30
50548;DHT22;38013;48.810;8.818;2022-09-17T11:32:42;16.20;63.50
50548;DHT22;38013;48.810;8.818;2022-09-17T11:35:48;16.30;60.70
50548;DHT22;38013;48.810;8.818;2022-09-17T11:38:23;16.50;58.90
50548;DHT22;38013;48.810;8.818;2022-09-17T11:41:07;16.50;58.70
50548;DHT22;38013;48.810;8.818;2022-09-17T11:44:17;16.50;59.20
50548;DHT22;38013;48.810;8.818;2022-09-17T11:47:12;16.50;58.80
50548;DHT22;38013;48.810;8.818;2022-09-17T11:50:02;16.50;59.20
50548;DHT22;38013;48.810;8.818;2022-09-17T11:52:43;16.60;58.80
50548;DHT22;38013;48.810;8.818;2022-09-17T11:55:24;16.50;59.40
50548;DHT22;38013;48.810;8.818;2022-09-17T11:57:59;16.40;58.70
50548;DHT22;38013;48.810;8.818;2022-09-17T12:00:29;16.40;59.40
50548;DHT22;38013;48.810;8.818;2022-09-17T12:03:05;16.40;60.50
50548;DHT22;38013;48.810;8.818;2022-09-17T12:05:53;16.40;59.30
50548;DHT22;38013;48.810;8.818;2022-09-17T12:11:00;16.50;59.00
50548;DHT22;38013;48.810;8.818;2022-09-17T12:13:51;16.50;58.80
50548;DHT22;38013;48.810;8.818;2022-09-17T12:22:31;16.30;61.10
50548;DHT22;38013;48.810;8.818;2022-09-17T12:25:00;16.30;60.00
50548;DHT22;38013;48.810;8.818;2022-09-17T12:28:07;16.10;61.70
50548;DHT22;38013;48.810;8.818;2022-09-17T12:30:44;16.00;62.40
50548;DHT22;38013;48.810;8.818;2022-09-17T12:33:30;15.90;61.90
50548;DHT22;38013;48.810;8.818;2022-09-17T12:36:11;15.80;61.80
50548;DHT22;38013;48.810;8.818;2022-09-17T12:54:48;14.70;65.00
50548;DHT22;38013;48.810;8.818;2022-09-17T13:00:45;14.10;66.70
50548;DHT22;38013;48.810;8.818;2022-09-17T13:03:26;13.90;66.90
50548;DHT22;38013;48.810;8.818;2022-09-17T13:11:56;13.40;69.30
50548;DHT22;38013;48.810;8.818;2022-09-17T13:14:53;13.40;70.60
50548;DHT22;38013;48.810;8.818;2022-09-17T13:17:45;13.40;73.80
50548;DHT22;38013;48.810;8.818;2022-09-17T13:20:26;13.60;73.30
50548;DHT22;38013;48.810;8.818;2022-09-17T13:22:58;13.90;73.60
50548;DHT22;38013;48.810;8.818;2022-09-17T13:25:24;14.20;73.90
50548;DHT22;38013;48.810;8.818;2022-09-17T13:28:07;14.50;73.00
50548;DHT22;38013;48.810;8.818;2022-09-17T13:30:59;14.90;72.90
50548;DHT22;38013;48.810;8.818;2022-09-17T13:36:37;15.50;70.30
50548;DHT22;38013;48.810;8.818;2022-09-17T13:39:10;15.80;69.30
50548;DHT22;38013;48.810;8.818;2022-09-17T13:42:06;16.00;69.20
50548;DHT22;38013;48.810;8.818;2022-09-17T13:44:41;16.30;70.20
50548;DHT22;38013;48.810;8.818;2022-09-17T13:50:02;16.80;67.40
50548;DHT22;38013;48.810;8.818;2022-09-17T13:52:37;17.00;66.90
50548;DHT22;38013;48.810;8.818;2022-09-17T13:55:07;17.20;66.60
50548;DHT22;38013;48.810;8.818;2022-09-17T13:57:47;17.40;66.00
50548;DHT22;38013;48.810;8.818;2022-09-17T14:05:56;18.00;61.60
50548;DHT22;38013;48.810;8.818;2022-09-17T14:13:57;18.30;61.50
50548;DHT22;38013;48.810;8.818;2022-09-17T14:22:24;18.70;59.20
50548;DHT22;38013;48.810;8.818;2022-09-17T14:24:51;18.80;60.20
50548;DHT22;38013;48.810;8.818;2022-09-17T14:27:45;18.80;59.20
50548;DHT22;38013;48.810;8.818;2022-09-17T14:30:21;18.80;57.60
50548;DHT22;38013;48.810;8.818;2022-09-17T14:33:13;18.80;58.70
50548;DHT22;38013;48.810;8.818;2022-09-17T14:35:45;18.80;60.30
50548;DHT22;38013;48.810;8.818;2022-09-17T14:38:19;19.00;60.10
50548;DHT22;38013;48.810;8.818;2022-09-17T14:40:52;19.10;57.80
50548;DHT22;38013;48.810;8.818;2022-09-17T14:46:19;19.30;56.00
50548;DHT22;38013;48.810;8.818;2022-09-17T14:48:45;19.30;55.60
50548;DHT22;38013;48.810;8.818;2022-09-17T14:56:50;18.60;56.00
50548;DHT22;38013;48.810;8.818;2022-09-17T15:02:38;18.10;56.70
50548;DHT22;38013;48.810;8.818;2022-09-17T15:07:45;17.90;58.40
50548;DHT22;38013;48.810;8.818;2022-09-17T15:10:17;17.90;58.10
50548;DHT22;38013;48.810;8.818;2022-09-17T15:12:45;17.70;57.90
50548;DHT22;38013;48.810;8.818;2022-09-17T15:15:21;17.70;59.30
50548;DHT22;38013;48.810;8.818;2022-09-17T15:17:48;17.60;59.00
50548;DHT22;38013;48.810;8.818;2022-09-17T15:20:24;17.60;59.60
50548;DHT22;38013;48.810;8.818;2022-09-17T15:25:31;17.70;60.20
50548;DHT22;38013;48.810;8.818;2022-09-17T15:28:04;17.90;60.20
50548;DHT22;38013;48.810;8.818;2022-09-17T15:30:40;18.10;60.10
50548;DHT22;38013;48.810;8.818;2022-09-17T15:33:09;18.50;60.60
50548;DHT22;38013;48.810;8.818;2022-09-17T15:35:36;18.80;59.60
50548;DHT22;38013;48.810;8.818;2022-09-17T15:38:18;19.30;59.70
50548;DHT22;38013;48.810;8.818;2022-09-17T15:40:46;19.60;56.50
50548;DHT22;38013;48.810;8.818;2022-09-17T15:43:24;19.90;56.90
50548;DHT22;38013;48.810;8.818;2022-09-17T15:45:53;20.30;55.30
50548;DHT22;38013;48.810;8.818;2022-09-17T15:48:35;20.40;55.00
50548;DHT22;38013;48.810;8.818;2022-09-17T15:51:04;20.50;52.80
50548;DHT22;38013;48.810;8.818;2022-09-17T15:53:37;20.50;53.30
50548;DHT22;38013;48.810;8.818;2022-09-17T16:08:49;20.10;53.30
50548;DHT22;38013;48.810;8.818;2022-09-17T16:11:17;20.10;53.70
50548;DHT22;38013;48.810;8.818;2022-09-17T16:13:45;20.10;53.10
50548;DHT22;38013;48.810;8.818;2022-09-17T16:16:20;20.10;52.90
50548;DHT22;38013;48.810;8.818;2022-09-17T16:18:48;20.00;52.10
50548;DHT22;38013;48.810;8.818;2022-09-17T16:21:15;20.00;53.90
50548;DHT22;38013;48.810;8.818;2022-09-17T16:23:42;20.00;53.50
50548;DHT22;38013;48.810;8.818;2022-09-17T16:26:13;20.00;52.80
50548;DHT22;38013;48.810;8.818;2022-09-17T16:28:41;19.80;51.70
50548;DHT22;38013;48.810;8.818;2022-09-17T16:31:11;19.60;51.60
50548;DHT22;38013;48.810;8.818;2022-09-17T16:33:37;19.30;51.80
50548;DHT22;38013;48.810;8.818;2022-09-17T16:36:03;18.90;51.70
50548;DHT22;38013;48.810;8.818;2022-09-17T16:38:31;18.60;52.10
50548;DHT22;38013;48.810;8.818;2022-09-17T16:40:56;18.30;52.50
50548;DHT22;38013;48.810;8.818;2022-09-17T16:43:22;17.90;53.30
50548;DHT22;38013;48.810;8.818;2022-09-17T16:46:04;17.60;54.00
50548;DHT22;38013;48.810;8.818;2022-09-17T16:48:31;17.20;55.40
50548;DHT22;38013;48.810;8.818;2022-09-17T16:50:58;16.90;55.50
50548;DHT22;38013;48.810;8.818;2022-09-17T16:53:25;16.60;56.30
50548;DHT22;38013;48.810;8.818;2022-09-17T16:55:52;16.30;57.10
50548;DHT22;38013;48.810;8.818;2022-09-17T16:58:18;16.00;57.80
50548;DHT22;38013;48.810;8.818;2022-09-17T17:00:44;15.70;58.70
50548;DHT22;38013;48.810;8.818;2022-09-17T17:03:14;15.50;59.60
50548;DHT22;38013;48.810;8.818;2022-09-17T17:05:40;15.20;60.60
50548;DHT22;38013;48.810;8.818;2022-09-17T17:08:06;15.00;61.30
50548;DHT22;38013;48.810;8.818;2022-09-17T17:10:34;14.70;61.80
50548;DHT22;38013;48.810;8.818;2022-09-17T17:13:02;14.60;62.70
50548;DHT22;38013;48.810;8.818;2022-09-17T17:15:28;14.40;62.70
50548;DHT22;38013;48.810;8.818;2022-09-17T17:17:54;14.20;63.40
50548;DHT22;38013;48.810;8.818;2022-09-17T17:20:20;14.10;64.00
50548;DHT22;38013;48.810;8.818;2022-09-17T17:22:46;13.90;64.50
50548;DHT22;38013;48.810;8.818;2022-09-17T17:25:13;13.80;65.30
50548;DHT22;38013;48.810;8.818;2022-09-17T17:27:40;13.70;66.10
50548;DHT22;38013;48.810;8.818;2022-09-17T17:30:08;13.50;66.70
50548;DHT22;38013;48.810;8.818;2022-09-17T17:32:41;13.50;67.30
50548;DHT22;38013;48.810;8.818;2022-09-17T17:35:07;13.40;67.50
50548;DHT22;38013;48.810;8.818;2022-09-17T17:37:33;13.30;67.60
50548;DHT22;38013;48.810;8.818;2022-09-17T17:39:59;13.20;68.00
50548;DHT22;38013;48.810;8.818;2022-09-17T17:42:26;13.10;68.10
50548;DHT22;38013;48.810;8.818;2022-09-17T17:44:51;13.10;68.50
50548;DHT22;38013;48.810;8.818;2022-09-17T17:47:19;13.10;68.90
50548;DHT22;38013;48.810;8.818;2022-09-17T17:49:45;13.00;69.20
50548;DHT22;38013;48.810;8.818;2022-09-17T17:52:13;12.90;69.20
50548;DHT22;38013;48.810;8.818;2022-09-17T17:54:38;12.90;69.50
50548;DHT22;38013;48.810;8.818;2022-09-17T17:57:04;12.80;69.40
50548;DHT22;38013;48.810;8.818;2022-09-17T17:59:30;12.80;69.50
50548;DHT22;38013;48.810;8.818;2022-09-17T18:01:56;12.70;69.60
50548;DHT22;38013;48.810;8.818;2022-09-17T18:04:21;12.70;69.70
50548;DHT22;38013;48.810;8.818;2022-09-17T18:06:47;12.70;69.80
50548;DHT22;38013;48.810;8.818;2022-09-17T18:09:13;12.70;70.10
50548;DHT22;38013;48.810;8.818;2022-09-17T18:11:39;12.60;70.10
50548;DHT22;38013;48.810;8.818;2022-09-17T18:14:05;12.70;70.50
50548;DHT22;38013;48.810;8.818;2022-09-17T18:16:32;12.60;70.80
50548;DHT22;38013;48.810;8.818;2022-09-17T18:18:57;12.60;71.00
50548;DHT22;38013;48.810;8.818;2022-09-17T18:21:23;12.60;70.90
50548;DHT22;38013;48.810;8.818;2022-09-17T18:23:50;12.60;71.10
50548;DHT22;38013;48.810;8.818;2022-09-17T18:26:22;12.60;71.40
50548;DHT22;38013;48.810;8.818;2022-09-17T18:28:49;12.60;71.70
50548;DHT22;38013;48.810;8.818;2022-09-17T18:36:33;12.60;71.80
50548;DHT22;38013;48.810;8.818;2022-09-17T18:39:02;12.50;71.30
50548;DHT22;38013;48.810;8.818;2022-09-17T18:41:34;12.50;71.40
50548;DHT22;38013;48.810;8.818;2022-09-17T18:44:09;12.50;71.80
50548;DHT22;38013;48.810;8.818;2022-09-17T18:46:36;12.50;72.00
50548;DHT22;38013;48.810;8.818;2022-09-17T18:49:03;12.50;71.70
50548;DHT22;38013;48.810;8.818;2022-09-17T18:51:29;12.50;71.80
50548;DHT22;38013;48.810;8.818;2022-09-17T18:53:56;12.50;72.00
50548;DHT22;38013;48.810;8.818;2022-09-17T18:56:28;12.50;72.20